Latest Weather Observations for Geelong Racecourse

IDV60801

Issued at 9:02 am EDT Friday 9 December 2022 (issued every 10 minutes, with the page automatically refreshed every 10 minutes)

About weather observations | Map of weather stations | Latest weather observations for VIC | Other Formats
Station Details ID: 087184 Name: GEELONG RACECOURSE Lat: -38.17 Lon: 144.38 Height: 12.9 m
Data from the previous 72 hours. | See also: Recent months at Geelong Racecourse
Date/Time
EDT
Temp
°C
App
Temp
°C
Dew
Point
°C
Rel
Hum
%
Delta-T
°C
Wind Press
QNH
hPa
Press
MSL
hPa
Rain since
9am
mm
Dir  Spd
km/h
Gust
km/h
Spd
kts
Gust
kts
09/09:00am 14.4 9.6 5.7 56 4.1 SSE 20 35 11 19 1018.6 1018.6 0.0
09/08:30am 14.0 9.1 4.9 54 4.2 S 20 32 11 17 1018.4 1018.4 0.0
09/08:00am 12.2 7.6 3.9 57 3.7 S 17 24 9 13 1018.3 1018.3 0.0
09/07:30am 13.3 8.5 4.7 56 4.0 SSE 19 24 10 13 1018.0 1018.0 0.0
09/07:00am 12.6 9.1 5.5 62 3.3 S 13 19 7 10 1017.5 1017.5 0.0
09/06:30am 11.4 8.1 6.3 71 2.4 S 13 19 7 10 1017.2 1017.2 0.0
09/06:00am 10.9 8.4 4.6 65 2.8 SSW 7 11 4 6 1017.3 1017.3 0.0
09/05:30am 10.9 8.0 4.4 64 2.9 SSW 9 13 5 7 1017.0 1017.0 0.0
09/05:00am 10.8 6.7 4.3 64 2.9 S 15 20 8 11 1016.5 1016.5 0.0
09/04:30am 10.8 7.3 5.3 69 2.5 S 13 22 7 12 1016.3 1016.3 0.0
09/04:00am 11.3 7.4 5.2 66 2.8 S 15 22 8 12 1016.5 1016.5 0.0
09/03:30am 10.8 8.0 5.1 68 2.6 S 9 15 5 8 1016.9 1016.9 0.0
09/03:00am 9.6 6.6 4.2 69 2.4 SSW 9 13 5 7 1017.2 1017.2 0.0
09/02:30am 9.9 6.4 3.6 65 2.7 SSW 11 15 6 8 1017.6 1017.6 0.0
09/02:00am 11.2 7.4 4.0 61 3.2 SSW 13 20 7 11 1017.8 1017.8 0.0
09/01:30am 10.6 7.7 4.9 68 2.6 SW 9 17 5 9 1018.0 1018.0 0.0
09/01:00am 10.8 7.7 5.6 70 2.4 WSW 11 15 6 8 1018.2 1018.2 0.0
09/12:30am 10.8 8.2 6.0 72 2.2 W 9 13 5 7 1018.2 1018.2 0.0
09/12:00am 11.0 8.3 5.5 69 2.5 W 9 11 5 6 1017.9 1017.9 0.0
 
Date/Time
EDT
Temp
°C
App
Temp
°C
Dew
Point
°C
Rel
Hum
%
Delta-T
°C
Wind Press
QNH
hPa
Press
MSL
hPa
Rain since
9am
mm
Dir  Spd
km/h
Gust
km/h
Spd
kts
Gust
kts
08/11:30pm 10.7 8.0 5.7 71 2.3 SW 9 13 5 7 1017.7 1017.7 0.0
08/11:00pm 10.8 8.4 5.3 69 2.5 WSW 7 11 4 6 1018.0 1018.0 0.0
08/10:30pm 10.9 8.2 5.4 69 2.5 WSW 9 13 5 7 1018.2 1018.2 0.0
08/10:00pm - - - - - SW 13 19 7 10 1017.8 1017.8 0.0
08/09:30pm - - - - - SW 13 17 7 9 1017.3 1017.3 0.0
08/09:00pm - - - - - SSW 13 20 7 11 1017.1 1017.1 0.0
08/08:30pm - - - - - SSW 20 30 11 16 1017.2 1017.2 0.0
08/08:00pm - - - - - SSW 22 35 12 19 1017.2 1017.2 0.0
08/07:30pm - - - - - SSW 24 33 13 18 1017.0 1017.0 0.0
08/07:00pm - - - - - SSW 24 35 13 19 1016.5 1016.5 0.0
08/06:30pm - - - - - SSW 28 39 15 21 1016.1 1016.1 0.0
08/06:00pm - - - - - SSW 32 43 17 23 1015.6 1015.6 0.0
08/05:30pm - - - - - SSW 30 39 16 21 1015.6 1015.6 0.0
08/05:18pm - - - - - SSW 30 48 16 26 1015.7 1015.7 0.0
08/05:00pm - - - - - SSW 33 41 18 22 1015.6 1015.6 0.0
08/04:30pm - - - - - SSW 30 41 16 22 1015.5 1015.5 0.0
08/04:00pm 14.5 6.9 5.8 56 4.1 SSW 35 50 19 27 1015.5 1015.5 0.0
08/03:30pm 15.1 7.9 5.0 51 4.7 SSW 32 41 17 22 1015.4 1015.4 0.0
08/03:00pm 14.9 8.4 6.5 57 4.1 S 30 41 16 22 1015.6 1015.6 0.0
08/02:30pm 16.1 9.1 4.2 45 5.5 SSW 30 41 16 22 1015.4 1015.4 0.0
08/02:00pm 14.6 7.2 4.0 49 4.9 SW 32 46 17 25 1015.5 1015.5 0.0
08/01:42pm 15.9 9.7 6.3 53 4.7 SW 28 46 15 25 1015.2 1015.2 0.0
08/01:30pm 14.2 7.3 4.8 53 4.4 SSW 30 43 16 23 1015.4 1015.4 0.0
08/01:00pm 16.0 9.7 5.9 51 4.9 SSW 28 39 15 21 1015.2 1015.2 0.0
08/12:30pm 14.9 7.7 5.1 52 4.6 SSW 32 43 17 23 1015.2 1015.2 0.0
08/12:02pm 14.4 8.0 5.0 53 4.4 SSW 28 46 15 25 1015.1 1015.1 0.0
08/12:00pm 14.7 8.3 5.0 52 4.5 SSW 28 39 15 21 1015.1 1015.1 0.0
08/11:45am 14.9 8.4 4.9 51 4.7 SW 28 48 15 26 1015.1 1015.1 0.0
08/11:30am 13.7 8.1 5.6 58 3.8 SW 24 33 13 18 1015.0 1015.0 0.0
08/11:00am 13.4 6.7 5.6 59 3.7 SW 30 43 16 23 1015.0 1015.0 0.0
08/10:30am 14.0 8.9 6.1 59 3.8 SW 22 37 12 20 1014.6 1014.6 0.0
08/10:00am 11.9 5.9 5.5 65 3.0 SW 26 39 14 21 1014.7 1014.7 0.0
08/09:30am 13.1 7.5 5.5 60 3.6 SW 24 35 13 19 1014.3 1014.3 0.0
08/09:00am 11.7 7.3 6.6 71 2.4 WSW 19 28 10 15 1014.0 1014.0 0.2
08/08:30am 11.5 7.7 5.6 67 2.7 WSW 15 22 8 12 1013.4 1013.4 0.2
08/08:00am 10.6 6.8 5.6 71 2.3 W 15 22 8 12 1013.1 1013.1 0.2
08/07:30am 10.2 6.3 5.2 71 2.3 WSW 15 24 8 13 1012.5 1012.5 0.2
08/07:00am 8.7 4.7 5.1 78 1.6 W 15 20 8 11 1012.4 1012.4 0.2
08/06:30am 8.4 4.8 5.0 79 1.5 W 13 22 7 12 1011.9 1011.9 0.2
08/06:00am 8.0 4.6 4.2 77 1.7 W 11 19 6 10 1011.2 1011.2 0.2
08/05:30am 8.1 4.4 4.7 79 1.5 WSW 13 22 7 12 1011.0 1011.0 0.2
08/05:00am 8.1 4.4 4.5 78 1.6 W 13 17 7 9 1010.8 1010.8 0.2
08/04:30am 8.3 4.6 4.3 76 1.7 W 13 20 7 11 1010.8 1010.8 0.2
08/04:00am 8.3 4.5 4.1 75 1.8 W 13 20 7 11 1010.7 1010.7 0.2
08/03:30am 8.7 4.2 4.3 74 1.9 W 17 24 9 13 1010.9 1010.9 0.2
08/03:00am 8.2 4.8 4.0 75 1.8 W 11 20 6 11 1010.6 1010.6 0.2
08/02:30am 8.3 5.3 4.3 76 1.7 W 9 17 5 9 1010.7 1010.7 0.2
08/02:00am 8.8 4.7 4.4 74 1.9 W 15 20 8 11 1010.8 1010.8 0.2
08/01:30am 8.8 5.1 4.6 75 1.9 W 13 20 7 11 1010.8 1010.8 0.2
08/01:00am 9.2 5.5 4.4 72 2.1 W 13 19 7 10 1010.9 1010.9 0.2
08/12:30am 9.3 4.8 4.3 71 2.2 W 17 22 9 12 1011.0 1011.0 0.2
08/12:00am 9.3 5.7 4.9 74 2.0 W 13 20 7 11 1010.9 1010.9 0.2
 
Date/Time
EDT
Temp
°C
App
Temp
°C
Dew
Point
°C
Rel
Hum
%
Delta-T
°C
Wind Press
QNH
hPa
Press
MSL
hPa
Rain since
9am
mm
Dir  Spd
km/h
Gust
km/h
Spd
kts
Gust
kts
07/11:30pm 9.9 5.6 5.1 72 2.2 W 17 26 9 14 1010.8 1010.8 0.2
07/11:00pm 9.8 5.7 4.6 70 2.3 W 15 22 8 12 1010.4 1010.4 0.2
07/10:30pm 10.6 6.1 4.1 64 2.9 WSW 17 26 9 14 1010.3 1010.3 0.2
07/10:00pm 11.7 6.7 4.4 61 3.3 WSW 20 32 11 17 1009.9 1009.9 0.2
07/09:30pm 11.9 7.0 4.9 62 3.2 WSW 20 30 11 16 1008.9 1008.9 0.2
07/09:00pm 12.9 8.4 6.3 64 3.1 WSW 19 33 10 18 1008.4 1008.4 0.2
07/08:30pm 13.0 9.0 8.3 73 2.3 WSW 19 26 10 14 1007.8 1007.8 0.2
07/08:00pm 13.4 8.5 8.3 71 2.5 WSW 24 35 13 19 1007.1 1007.1 0.2
07/07:30pm 13.9 9.2 9.1 73 2.4 WSW 24 35 13 19 1006.6 1006.6 0.2
07/07:00pm 13.7 9.7 10.5 81 1.7 WSW 22 33 12 18 1005.9 1005.9 0.2
07/06:30pm 15.7 9.5 7.7 59 4.0 W 30 43 16 23 1005.1 1005.1 0.0
07/06:21pm 16.7 10.9 7.9 56 4.4 W 28 48 15 26 1004.9 1004.9 0.0
07/06:00pm 17.1 10.7 6.9 51 5.1 W 30 46 16 25 1004.8 1004.8 0.0
07/05:30pm 18.5 12.3 6.0 44 6.2 WSW 28 41 15 22 1004.3 1004.3 0.0
07/05:00pm 19.3 13.6 6.8 44 6.3 WSW 26 44 14 24 1004.5 1004.5 0.0
07/04:30pm 19.2 12.7 6.3 43 6.4 W 30 43 16 23 1004.4 1004.4 0.0
07/04:00pm 19.6 13.5 6.7 43 6.5 W 28 41 15 22 1004.4 1004.4 0.0
07/03:30pm 20.0 14.9 7.7 45 6.3 W 24 39 13 21 1004.5 1004.5 0.0
07/03:00pm 17.5 14.5 9.4 59 4.3 SSW 15 24 8 13 1004.6 1004.6 0.0
07/02:30pm 17.7 13.7 10.3 62 3.9 S 22 28 12 15 1004.6 1004.6 0.0
07/02:00pm 17.3 13.2 10.0 62 3.9 S 22 35 12 19 1004.7 1004.7 0.0
07/01:30pm 17.6 14.0 10.7 64 3.7 S 20 32 11 17 1004.7 1004.7 0.0
07/01:00pm 16.4 13.0 10.7 69 3.0 S 19 28 10 15 1004.7 1004.7 0.0
07/12:30pm 17.6 15.1 11.2 66 3.5 SSW 15 20 8 11 1004.6 1004.6 0.0
07/12:00pm 17.8 16.0 10.7 63 3.8 SW 11 24 6 13 1004.7 1004.7 0.0
07/11:30am 16.6 13.4 11.1 70 3.0 SSW 19 26 10 14 1005.0 1005.0 0.0
07/11:00am 17.2 15.1 11.2 68 3.3 SSW 13 19 7 10 1004.8 1004.8 0.0
07/10:30am 18.0 16.7 11.1 64 3.7 SW 9 17 5 9 1004.7 1004.7 0.0
07/10:00am 17.1 15.4 10.0 63 3.8 SSW 9 15 5 8 1004.6 1004.6 0.0
07/09:30am 16.5 15.0 9.0 61 3.9 SSW 7 13 4 7 1004.6 1004.6 0.0
07/09:00am 16.1 14.0 9.8 66 3.3 SW 11 13 6 7 1004.6 1004.6 0.0
07/08:30am 15.9 14.1 9.6 66 3.3 SW 9 11 5 6 1004.8 1004.8 0.0
07/08:00am 14.9 13.4 9.3 69 2.9 SW 7 11 4 6 1004.6 1004.6 0.0
07/07:30am 13.2 11.9 10.0 81 1.6 SW 7 9 4 5 1004.3 1004.3 0.0
07/07:00am 11.5 11.7 10.4 93 0.6 CALM 0 0 0 0 1004.1 1004.1 0.0
07/06:30am 9.4 9.0 8.3 93 0.5 CALM 0 0 0 0 1004.0 1004.0 0.0
07/06:00am 9.4 9.0 8.3 93 0.5 CALM 0 0 0 0 1004.1 1004.1 0.0
07/05:30am 9.7 9.3 8.3 91 0.7 CALM 0 0 0 0 1003.9 1003.9 0.0
07/05:00am 10.0 9.7 8.6 91 0.7 CALM 0 0 0 0 1003.8 1003.8 0.0
07/04:30am 10.5 10.3 8.9 90 0.8 CALM 0 0 0 0 1004.0 1004.0 0.0
07/04:00am 10.6 10.4 9.2 91 0.7 CALM 0 0 0 0 1004.1 1004.1 0.0
07/03:30am 10.6 10.3 8.7 88 0.9 CALM 0 0 0 0 1004.5 1004.5 0.0
07/03:00am 11.0 10.8 8.9 87 1.0 CALM 0 0 0 0 1004.8 1004.8 0.0
07/02:30am 11.7 11.5 8.9 83 1.4 CALM 0 0 0 0 1005.1 1005.1 0.0
07/02:00am 12.2 11.8 9.6 84 1.3 SW 2 4 1 2 1005.7 1005.7 0.0
07/01:30am 11.8 11.7 9.4 85 1.2 CALM 0 2 0 1 1006.0 1006.0 0.0
07/01:00am 11.8 11.7 9.5 86 1.2 CALM 0 0 0 0 1006.2 1006.2 0.0
07/12:30am 12.1 11.3 9.5 84 1.3 S 4 6 2 3 1006.6 1006.6 0.0
07/12:00am 12.1 12.0 9.3 83 1.4 CALM 0 6 0 3 1006.9 1006.9 0.0
 
Date/Time
EDT
Temp
°C
App
Temp
°C
Dew
Point
°C
Rel
Hum
%
Delta-T
°C
Wind Press
QNH
hPa
Press
MSL
hPa
Rain since
9am
mm
Dir  Spd
km/h
Gust
km/h
Spd
kts
Gust
kts
06/11:30pm 12.1 12.0 9.3 83 1.4 CALM 0 0 0 0 1007.4 1007.4 0.0
06/11:00pm 12.6 12.0 9.1 79 1.8 SSE 2 6 1 3 1007.5 1007.5 0.0
06/10:30pm 12.9 11.4 9.2 78 1.9 SSE 7 11 4 6 1007.8 1007.8 0.0
06/10:00pm 12.9 11.4 9.2 78 1.9 SSE 7 11 4 6 1008.1 1008.1 0.0
06/09:30pm 13.3 11.3 8.8 74 2.3 SSE 9 13 5 7 1008.1 1008.1 0.0
06/09:00pm 13.9 12.0 8.9 72 2.5 SSE 9 13 5 7 1008.1 1008.1 0.0
06/08:30pm 14.5 12.1 8.7 68 2.9 SSE 11 15 6 8 1007.9 1007.9 0.0
06/08:00pm 14.8 12.3 9.6 71 2.7 SSE 13 20 7 11 1008.0 1008.0 0.0
06/07:30pm 15.4 12.8 9.5 68 3.1 SSE 13 19 7 10 1008.0 1008.0 0.0
06/07:00pm 16.6 13.7 9.8 64 3.6 SSE 15 22 8 12 1007.9 1007.9 0.0
06/06:30pm 17.0 14.2 10.1 64 3.6 SSE 15 24 8 13 1007.9 1007.9 0.0
06/06:00pm 17.1 13.9 10.0 63 3.8 SSE 17 24 9 13 1007.9 1007.9 0.0
06/05:30pm 17.8 15.1 10.2 61 4.0 SSE 15 24 8 13 1008.3 1008.3 0.0
06/05:00pm 17.9 14.5 9.3 57 4.5 SSE 17 26 9 14 1008.4 1008.4 0.0
06/04:30pm 18.4 15.3 10.3 59 4.3 S 17 30 9 16 1009.1 1009.1 0.0
06/04:00pm 18.6 15.0 9.9 57 4.6 SSE 19 28 10 15 1009.2 1009.2 0.0
06/03:30pm 19.2 16.2 9.1 52 5.3 SSE 15 24 8 13 1009.3 1009.3 0.0
06/03:00pm 19.0 16.4 9.2 53 5.2 SE 13 20 7 11 1009.4 1009.4 0.0
06/02:30pm 18.6 15.8 9.9 57 4.6 SE 15 24 8 13 1009.7 1009.7 0.0
06/02:00pm 17.2 14.6 9.4 60 4.1 SE 13 24 7 13 1010.0 1010.0 0.0
06/01:30pm 17.7 15.7 10.3 62 3.9 SSE 11 20 6 11 1010.5 1010.5 0.0
06/01:00pm 17.4 15.8 10.3 63 3.8 NNE 9 15 5 8 1010.7 1010.7 0.0
06/12:30pm 18.4 16.8 11.7 65 3.7 ESE 11 28 6 15 1011.1 1011.1 0.0
06/12:00pm 17.4 16.3 10.8 65 3.5 NE 7 15 4 8 1011.4 1011.4 0.0
06/11:30am 18.3 17.4 12.5 69 3.2 ENE 9 15 5 8 1011.5 1011.5 0.0
06/11:00am 16.7 14.8 10.5 67 3.3 ESE 11 17 6 9 1011.6 1011.6 0.0
06/10:30am 17.1 15.6 10.7 66 3.4 ESE 9 15 5 8 1011.7 1011.7 0.0
06/10:00am 15.8 14.9 11.4 75 2.4 ENE 7 11 4 6 1011.9 1011.9 0.0
06/09:30am 15.4 14.6 11.8 79 1.9 E 7 11 4 6 1012.4 1012.4 0.0

Other formats

Comma delimited format used in spreadsheet applications
http://www.bom.gov.au/fwo/IDV60801/IDV60801.94857.axf

JavaScript Object Notation format (JSON) in row-major order
http://www.bom.gov.au/fwo/IDV60801/IDV60801.94857.json

Data quality

Most of these data are generated automatically and are frequently updated. Quality checks on data are not normally performed. It is possible for incorrect values to appear. Refer to information at About Latest Weather Observations and please check the disclaimer before using these data.